sensor_id;sensor_type;location;lat;lon;timestamp;pressure;altitude;pressure_sealevel;temperature;humidity
4836;BME280;2432;51.226;6.904;2022-12-18T00:01:04;102138.34;;;-4.14;100.00
4836;BME280;2432;51.226;6.904;2022-12-18T00:03:33;102139.22;;;-4.14;100.00
4836;BME280;2432;51.226;6.904;2022-12-18T00:06:00;102139.13;;;-4.15;100.00
4836;BME280;2432;51.226;6.904;2022-12-18T00:08:27;102128.81;;;-4.17;100.00
4836;BME280;2432;51.226;6.904;2022-12-18T00:10:54;102128.69;;;-4.18;100.00
4836;BME280;2432;51.226;6.904;2022-12-18T00:13:25;102138.03;;;-4.19;100.00
4836;BME280;2432;51.226;6.904;2022-12-18T00:15:53;102135.56;;;-4.17;100.00
4836;BME280;2432;51.226;6.904;2022-12-18T00:18:22;102137.22;;;-4.18;100.00
4836;BME280;2432;51.226;6.904;2022-12-18T00:20:48;102138.72;;;-4.21;100.00
4836;BME280;2432;51.226;6.904;2022-12-18T00:23:14;102132.03;;;-4.19;100.00
4836;BME280;2432;51.226;6.904;2022-12-18T00:25:41;102133.00;;;-4.17;100.00
4836;BME280;2432;51.226;6.904;2022-12-18T00:28:07;102131.25;;;-4.18;100.00
4836;BME280;2432;51.226;6.904;2022-12-18T00:30:34;102142.47;;;-4.16;100.00
4836;BME280;2432;51.226;6.904;2022-12-18T00:33:00;102143.34;;;-4.16;100.00
4836;BME280;2432;51.226;6.904;2022-12-18T00:35:27;102144.16;;;-4.17;100.00
4836;BME280;2432;51.226;6.904;2022-12-18T00:37:53;102144.91;;;-4.18;100.00
4836;BME280;2432;51.226;6.904;2022-12-18T00:40:20;102135.56;;;-4.17;100.00
4836;BME280;2432;51.226;6.904;2022-12-18T00:42:46;102133.78;;;-4.18;100.00
4836;BME280;2432;51.226;6.904;2022-12-18T00:45:27;102132.44;;;-4.13;100.00
4836;BME280;2432;51.226;6.904;2022-12-18T00:47:55;102121.41;;;-4.12;100.00
4836;BME280;2432;51.226;6.904;2022-12-18T00:50:23;102123.97;;;-4.12;100.00
4836;BME280;2432;51.226;6.904;2022-12-18T00:52:50;102123.97;;;-4.12;100.00
4836;BME280;2432;51.226;6.904;2022-12-18T00:55:17;102125.72;;;-4.11;100.00
4836;BME280;2432;51.226;6.904;2022-12-18T00:57:44;102127.00;;;-4.05;100.00
4836;BME280;2432;51.226;6.904;2022-12-18T01:00:13;102127.09;;;-4.03;100.00
4836;BME280;2432;51.226;6.904;2022-12-18T01:02:40;102138.22;;;-4.03;100.00
4836;BME280;2432;51.226;6.904;2022-12-18T01:05:08;102133.97;;;-4.02;100.00
4836;BME280;2432;51.226;6.904;2022-12-18T01:07:36;102130.75;;;-4.00;100.00
4836;BME280;2432;51.226;6.904;2022-12-18T01:10:03;102134.94;;;-4.00;100.00
4836;BME280;2432;51.226;6.904;2022-12-18T01:12:30;102133.31;;;-4.00;100.00
4836;BME280;2432;51.226;6.904;2022-12-18T01:14:57;102134.88;;;-4.02;100.00
4836;BME280;2432;51.226;6.904;2022-12-18T01:17:24;102131.25;;;-4.05;100.00
4836;BME280;2432;51.226;6.904;2022-12-18T01:19:50;102138.72;;;-4.08;100.00
4836;BME280;2432;51.226;6.904;2022-12-18T01:22:17;102139.41;;;-4.11;100.00
4836;BME280;2432;51.226;6.904;2022-12-18T01:24:43;102138.59;;;-4.10;100.00
4836;BME280;2432;51.226;6.904;2022-12-18T01:27:10;102137.72;;;-4.10;100.00
4836;BME280;2432;51.226;6.904;2022-12-18T01:29:36;102132.63;;;-4.10;100.00
4836;BME280;2432;51.226;6.904;2022-12-18T01:32:03;102127.31;;;-4.13;100.00
4836;BME280;2432;51.226;6.904;2022-12-18T01:34:29;102132.53;;;-4.12;100.00
4836;BME280;2432;51.226;6.904;2022-12-18T01:36:56;102123.00;;;-4.14;100.00
4836;BME280;2432;51.226;6.904;2022-12-18T01:39:22;102125.47;;;-4.16;100.00
4836;BME280;2432;51.226;6.904;2022-12-18T01:41:49;102127.13;;;-4.16;100.00
4836;BME280;2432;51.226;6.904;2022-12-18T01:50:15;102113.03;;;-4.10;100.00
4836;BME280;2432;51.226;6.904;2022-12-18T01:52:45;102109.91;;;-4.06;100.00
4836;BME280;2432;51.226;6.904;2022-12-18T01:55:16;102110.19;;;-4.01;100.00
4836;BME280;2432;51.226;6.904;2022-12-18T01:57:44;102114.63;;;-3.99;100.00
4836;BME280;2432;51.226;6.904;2022-12-18T02:00:18;102119.91;;;-3.95;100.00
4836;BME280;2432;51.226;6.904;2022-12-18T02:02:46;102122.00;;;-3.90;100.00
4836;BME280;2432;51.226;6.904;2022-12-18T02:05:21;102126.41;;;-3.87;100.00
4836;BME280;2432;51.226;6.904;2022-12-18T02:08:00;102119.59;;;-3.87;100.00
4836;BME280;2432;51.226;6.904;2022-12-18T02:13:31;102137.69;;;-3.84;100.00
4836;BME280;2432;51.226;6.904;2022-12-18T02:16:21;102131.13;;;-3.80;100.00
4836;BME280;2432;51.226;6.904;2022-12-18T02:18:59;102126.88;;;-3.80;100.00
4836;BME280;2432;51.226;6.904;2022-12-18T02:21:40;102120.97;;;-3.79;100.00
4836;BME280;2432;51.226;6.904;2022-12-18T02:24:34;102122.56;;;-3.81;100.00
4836;BME280;2432;51.226;6.904;2022-12-18T02:27:06;102114.09;;;-3.80;100.00
4836;BME280;2432;51.226;6.904;2022-12-18T02:29:54;102120.97;;;-3.79;100.00
4836;BME280;2432;51.226;6.904;2022-12-18T02:32:30;102117.53;;;-3.79;100.00
4836;BME280;2432;51.226;6.904;2022-12-18T02:34:59;102102.97;;;-3.80;100.00
4836;BME280;2432;51.226;6.904;2022-12-18T02:37:28;102104.53;;;-3.82;100.00
4836;BME280;2432;51.226;6.904;2022-12-18T02:39:56;102091.66;;;-3.84;100.00
4836;BME280;2432;51.226;6.904;2022-12-18T02:42:24;102092.28;;;-3.88;100.00
4836;BME280;2432;51.226;6.904;2022-12-18T02:44:52;102091.38;;;-3.88;100.00
4836;BME280;2432;51.226;6.904;2022-12-18T02:47:22;102091.47;;;-3.87;100.00
4836;BME280;2432;51.226;6.904;2022-12-18T02:50:02;102113.63;;;-3.87;100.00
4836;BME280;2432;51.226;6.904;2022-12-18T03:00:50;102108.59;;;-3.86;100.00
4836;BME280;2432;51.226;6.904;2022-12-18T03:03:26;102100.22;;;-3.83;100.00
4836;BME280;2432;51.226;6.904;2022-12-18T03:06:08;102105.22;;;-3.85;100.00
4836;BME280;2432;51.226;6.904;2022-12-18T03:08:43;102101.88;;;-3.84;100.00
4836;BME280;2432;51.226;6.904;2022-12-18T03:11:13;102095.81;;;-3.86;100.00
4836;BME280;2432;51.226;6.904;2022-12-18T03:16:11;102096.78;;;-3.84;100.00
4836;BME280;2432;51.226;6.904;2022-12-18T03:19:11;102089.19;;;-3.82;100.00
4836;BME280;2432;51.226;6.904;2022-12-18T03:21:47;102090.28;;;-3.79;100.00
4836;BME280;2432;51.226;6.904;2022-12-18T03:24:17;102091.06;;;-3.80;100.00
4836;BME280;2432;51.226;6.904;2022-12-18T03:26:46;102088.44;;;-3.81;100.00
4836;BME280;2432;51.226;6.904;2022-12-18T03:29:18;102087.41;;;-3.83;100.00
4836;BME280;2432;51.226;6.904;2022-12-18T03:31:53;102084.78;;;-3.85;100.00
4836;BME280;2432;51.226;6.904;2022-12-18T03:34:26;102084.59;;;-3.88;100.00
4836;BME280;2432;51.226;6.904;2022-12-18T03:36:56;102080.28;;;-3.89;100.00
4836;BME280;2432;51.226;6.904;2022-12-18T03:39:23;102086.19;;;-3.90;100.00
4836;BME280;2432;51.226;6.904;2022-12-18T03:42:01;102091.09;;;-3.93;100.00
4836;BME280;2432;51.226;6.904;2022-12-18T03:47:16;102089.16;;;-3.97;100.00
4836;BME280;2432;51.226;6.904;2022-12-18T03:49:56;102085.63;;;-3.99;100.00
4836;BME280;2432;51.226;6.904;2022-12-18T03:52:41;102087.97;;;-4.02;100.00
4836;BME280;2432;51.226;6.904;2022-12-18T03:55:11;102076.75;;;-4.04;100.00
4836;BME280;2432;51.226;6.904;2022-12-18T03:57:38;102083.56;;;-4.05;100.00
4836;BME280;2432;51.226;6.904;2022-12-18T04:00:09;102080.03;;;-4.07;100.00
4836;BME280;2432;51.226;6.904;2022-12-18T04:02:38;102073.16;;;-4.08;100.00
4836;BME280;2432;51.226;6.904;2022-12-18T04:05:08;102067.81;;;-4.11;100.00
4836;BME280;2432;51.226;6.904;2022-12-18T04:07:36;102063.59;;;-4.10;100.00
4836;BME280;2432;51.226;6.904;2022-12-18T04:10:06;102063.41;;;-4.13;100.00
4836;BME280;2432;51.226;6.904;2022-12-18T04:12:33;102060.84;;;-4.13;100.00
4836;BME280;2432;51.226;6.904;2022-12-18T04:15:00;102059.09;;;-4.14;100.00
4836;BME280;2432;51.226;6.904;2022-12-18T04:17:26;102058.22;;;-4.15;100.00
4836;BME280;2432;51.226;6.904;2022-12-18T04:19:53;102063.09;;;-4.18;100.00
4836;BME280;2432;51.226;6.904;2022-12-18T04:22:19;102060.47;;;-4.19;100.00
4836;BME280;2432;51.226;6.904;2022-12-18T04:24:46;102060.47;;;-4.19;100.00
4836;BME280;2432;51.226;6.904;2022-12-18T04:27:12;102055.16;;;-4.22;100.00
4836;BME280;2432;51.226;6.904;2022-12-18T04:29:39;102054.38;;;-4.21;100.00
4836;BME280;2432;51.226;6.904;2022-12-18T04:32:05;102055.16;;;-4.22;100.00
4836;BME280;2432;51.226;6.904;2022-12-18T04:34:32;102060.28;;;-4.22;100.00
4836;BME280;2432;51.226;6.904;2022-12-18T04:36:58;102064.50;;;-4.23;100.00
4836;BME280;2432;51.226;6.904;2022-12-18T04:39:25;102057.72;;;-4.22;100.00
4836;BME280;2432;51.226;6.904;2022-12-18T04:41:51;102061.88;;;-4.24;100.00
4836;BME280;2432;51.226;6.904;2022-12-18T04:44:18;102058.31;;;-4.27;100.00
4836;BME280;2432;51.226;6.904;2022-12-18T04:46:44;102060.75;;;-4.28;100.00
4836;BME280;2432;51.226;6.904;2022-12-18T04:49:11;102060.69;;;-4.30;100.00
4836;BME280;2432;51.226;6.904;2022-12-18T04:51:38;102059.88;;;-4.29;100.00
4836;BME280;2432;51.226;6.904;2022-12-18T04:54:04;102056.44;;;-4.29;100.00
4836;BME280;2432;51.226;6.904;2022-12-18T04:56:31;102059.88;;;-4.29;100.00
4836;BME280;2432;51.226;6.904;2022-12-18T04:58:58;102047.09;;;-4.29;100.00
4836;BME280;2432;51.226;6.904;2022-12-18T05:01:24;102042.97;;;-4.27;100.00
4836;BME280;2432;51.226;6.904;2022-12-18T05:03:59;102042.97;;;-4.27;100.00
4836;BME280;2432;51.226;6.904;2022-12-18T05:06:26;102036.09;;;-4.28;100.00
4836;BME280;2432;51.226;6.904;2022-12-18T05:08:52;102040.41;;;-4.27;100.00
4836;BME280;2432;51.226;6.904;2022-12-18T05:11:19;102037.84;;;-4.27;100.00
4836;BME280;2432;51.226;6.904;2022-12-18T05:13:45;102037.78;;;-4.28;100.00
4836;BME280;2432;51.226;6.904;2022-12-18T05:16:12;102041.22;;;-4.28;100.00
4836;BME280;2432;51.226;6.904;2022-12-18T05:18:40;102036.78;;;-4.30;100.00
4836;BME280;2432;51.226;6.904;2022-12-18T05:21:06;102040.94;;;-4.32;100.00
4836;BME280;2432;51.226;6.904;2022-12-18T05:23:33;102040.72;;;-4.35;100.00
4836;BME280;2432;51.226;6.904;2022-12-18T05:26:01;102034.72;;;-4.36;100.00
4836;BME280;2432;51.226;6.904;2022-12-18T05:28:30;102039.97;;;-4.34;100.00
4836;BME280;2432;51.226;6.904;2022-12-18T05:30:59;102033.06;;;-4.35;100.00
4836;BME280;2432;51.226;6.904;2022-12-18T05:33:29;102031.19;;;-4.38;100.00
4836;BME280;2432;51.226;6.904;2022-12-18T05:35:58;102030.22;;;-4.40;100.00
4836;BME280;2432;51.226;6.904;2022-12-18T05:38:29;102032.69;;;-4.41;100.00
4836;BME280;2432;51.226;6.904;2022-12-18T05:40:56;102039.66;;;-4.39;100.00
4836;BME280;2432;51.226;6.904;2022-12-18T05:43:25;102047.31;;;-4.39;100.00
4836;BME280;2432;51.226;6.904;2022-12-18T05:45:52;102046.53;;;-4.38;100.00
4836;BME280;2432;51.226;6.904;2022-12-18T05:48:19;102060.28;;;-4.36;100.00
4836;BME280;2432;51.226;6.904;2022-12-18T05:50:47;102050.94;;;-4.35;100.00
4836;BME280;2432;51.226;6.904;2022-12-18T05:53:16;102064.59;;;-4.35;100.00
4836;BME280;2432;51.226;6.904;2022-12-18T05:55:44;102066.41;;;-4.34;100.00
4836;BME280;2432;51.226;6.904;2022-12-18T05:58:12;102071.59;;;-4.32;100.00
4836;BME280;2432;51.226;6.904;2022-12-18T06:00:41;102078.56;;;-4.30;100.00
4836;BME280;2432;51.226;6.904;2022-12-18T06:03:08;102078.75;;;-4.27;100.00
4836;BME280;2432;51.226;6.904;2022-12-18T06:05:37;102088.97;;;-4.27;100.00
4836;BME280;2432;51.226;6.904;2022-12-18T06:08:04;102086.53;;;-4.25;100.00
4836;BME280;2432;51.226;6.904;2022-12-18T06:10:31;102089.19;;;-4.23;100.00
4836;BME280;2432;51.226;6.904;2022-12-18T06:12:58;102101.97;;;-4.23;100.00
4836;BME280;2432;51.226;6.904;2022-12-18T06:15:25;102096.75;;;-4.25;100.00
4836;BME280;2432;51.226;6.904;2022-12-18T06:17:51;102110.22;;;-4.28;100.00
4836;BME280;2432;51.226;6.904;2022-12-18T06:20:18;102110.91;;;-4.30;100.00
4836;BME280;2432;51.226;6.904;2022-12-18T06:22:45;102115.94;;;-4.32;100.00
4836;BME280;2432;51.226;6.904;2022-12-18T06:25:11;102115.84;;;-4.33;100.00
4836;BME280;2432;51.226;6.904;2022-12-18T06:27:38;102113.16;;;-4.35;100.00
4836;BME280;2432;51.226;6.904;2022-12-18T06:30:05;102111.28;;;-4.37;100.00
4836;BME280;2432;51.226;6.904;2022-12-18T06:32:32;102110.13;;;-4.42;100.00
4836;BME280;2432;51.226;6.904;2022-12-18T06:34:58;102099.31;;;-4.51;100.00
4836;BME280;2432;51.226;6.904;2022-12-18T06:37:24;102112.75;;;-4.54;100.00
4836;BME280;2432;51.226;6.904;2022-12-18T06:39:53;102095.09;;;-4.51;100.00
4836;BME280;2432;51.226;6.904;2022-12-18T06:42:20;102086.84;;;-4.47;100.00
4836;BME280;2432;51.226;6.904;2022-12-18T06:44:46;102079.34;;;-4.44;100.00
4836;BME280;2432;51.226;6.904;2022-12-18T06:47:13;102082.59;;;-4.46;100.00
4836;BME280;2432;51.226;6.904;2022-12-18T06:49:39;102081.63;;;-4.48;100.00
4836;BME280;2432;51.226;6.904;2022-12-18T06:52:06;102075.22;;;-4.55;100.00
4836;BME280;2432;51.226;6.904;2022-12-18T06:54:32;102074.25;;;-4.57;100.00
4836;BME280;2432;51.226;6.904;2022-12-18T06:56:58;102062.84;;;-4.62;100.00
4836;BME280;2432;51.226;6.904;2022-12-18T06:59:25;102069.84;;;-4.60;100.00
4836;BME280;2432;51.226;6.904;2022-12-18T07:01:53;102068.97;;;-4.60;100.00
4836;BME280;2432;51.226;6.904;2022-12-18T07:04:19;102063.63;;;-4.63;100.00
4836;BME280;2432;51.226;6.904;2022-12-18T07:06:46;102065.41;;;-4.62;100.00
4836;BME280;2432;51.226;6.904;2022-12-18T07:09:12;102057.56;;;-4.65;100.00
4836;BME280;2432;51.226;6.904;2022-12-18T07:11:39;102055.78;;;-4.66;100.00
4836;BME280;2432;51.226;6.904;2022-12-18T07:14:05;102050.69;;;-4.66;100.00
4836;BME280;2432;51.226;6.904;2022-12-18T07:16:32;102052.13;;;-4.70;100.00
4836;BME280;2432;51.226;6.904;2022-12-18T07:18:58;102058.03;;;-4.71;100.00
4836;BME280;2432;51.226;6.904;2022-12-18T07:21:25;102065.59;;;-4.72;100.00
4836;BME280;2432;51.226;6.904;2022-12-18T07:23:51;102076.69;;;-4.72;100.00
4836;BME280;2432;51.226;6.904;2022-12-18T07:26:20;102068.16;;;-4.72;100.00
4836;BME280;2432;51.226;6.904;2022-12-18T07:28:47;102075.81;;;-4.72;100.00
4836;BME280;2432;51.226;6.904;2022-12-18T07:31:17;102082.41;;;-4.76;100.00
4836;BME280;2432;51.226;6.904;2022-12-18T07:33:45;102071.88;;;-4.80;100.00
4836;BME280;2432;51.226;6.904;2022-12-18T07:36:13;102068.44;;;-4.81;100.00
4836;BME280;2432;51.226;6.904;2022-12-18T07:38:40;102062.34;;;-4.83;100.00
4836;BME280;2432;51.226;6.904;2022-12-18T07:41:09;102045.28;;;-4.84;100.00
4836;BME280;2432;51.226;6.904;2022-12-18T07:43:36;102049.69;;;-4.81;100.00
4836;BME280;2432;51.226;6.904;2022-12-18T07:46:04;102047.03;;;-4.83;100.00
4836;BME280;2432;51.226;6.904;2022-12-18T07:48:31;102050.56;;;-4.81;100.00
4836;BME280;2432;51.226;6.904;2022-12-18T07:51:03;102058.63;;;-4.75;100.00
4836;BME280;2432;51.226;6.904;2022-12-18T07:53:31;102052.66;;;-4.75;100.00
4836;BME280;2432;51.226;6.904;2022-12-18T07:56:09;102050.09;;;-4.75;100.00
4836;BME280;2432;51.226;6.904;2022-12-18T07:58:55;102051.44;;;-4.80;100.00
4836;BME280;2432;51.226;6.904;2022-12-18T08:01:22;102060.09;;;-4.78;100.00
4836;BME280;2432;51.226;6.904;2022-12-18T08:03:49;102050.88;;;-4.76;100.00
4836;BME280;2432;51.226;6.904;2022-12-18T08:06:17;102047.53;;;-4.75;100.00
4836;BME280;2432;51.226;6.904;2022-12-18T08:08:48;102045.97;;;-4.73;100.00
4836;BME280;2432;51.226;6.904;2022-12-18T08:11:15;102034.88;;;-4.74;100.00
4836;BME280;2432;51.226;6.904;2022-12-18T08:13:42;102033.38;;;-4.70;100.00
4836;BME280;2432;51.226;6.904;2022-12-18T08:16:09;102033.59;;;-4.67;100.00
4836;BME280;2432;51.226;6.904;2022-12-18T08:18:37;102025.22;;;-4.65;100.00
4836;BME280;2432;51.226;6.904;2022-12-18T08:21:20;102024.44;;;-4.64;100.00
4836;BME280;2432;51.226;6.904;2022-12-18T08:23:49;102020.63;;;-4.57;100.00
4836;BME280;2432;51.226;6.904;2022-12-18T08:26:18;102004.69;;;-4.53;100.00
4836;BME280;2432;51.226;6.904;2022-12-18T08:28:46;101994.69;;;-4.50;100.00
4836;BME280;2432;51.226;6.904;2022-12-18T08:31:13;101992.13;;;-4.50;100.00
4836;BME280;2432;51.226;6.904;2022-12-18T08:33:40;101992.31;;;-4.47;100.00
4836;BME280;2432;51.226;6.904;2022-12-18T08:36:09;101984.81;;;-4.44;100.00
4836;BME280;2432;51.226;6.904;2022-12-18T08:38:36;101983.34;;;-4.40;100.00
4836;BME280;2432;51.226;6.904;2022-12-18T08:41:05;101980.19;;;-4.36;100.00
4836;BME280;2432;51.226;6.904;2022-12-18T08:43:32;101977.13;;;-4.31;100.00
4836;BME280;2432;51.226;6.904;2022-12-18T08:46:19;101984.41;;;-4.23;100.00
4836;BME280;2432;51.226;6.904;2022-12-18T08:48:46;101987.31;;;-4.17;100.00
4836;BME280;2432;51.226;6.904;2022-12-18T08:51:15;101993.50;;;-4.14;100.00
4836;BME280;2432;51.226;6.904;2022-12-18T08:53:43;102005.19;;;-4.04;100.00
4836;BME280;2432;51.226;6.904;2022-12-18T08:56:11;101992.88;;;-3.96;100.00
4836;BME280;2432;51.226;6.904;2022-12-18T08:58:38;101988.13;;;-3.90;100.00
4836;BME280;2432;51.226;6.904;2022-12-18T09:01:08;101994.47;;;-3.84;100.00
4836;BME280;2432;51.226;6.904;2022-12-18T09:03:35;101999.00;;;-3.80;100.00
4836;BME280;2432;51.226;6.904;2022-12-18T09:06:03;101993.34;;;-3.74;100.00
4836;BME280;2432;51.226;6.904;2022-12-18T09:08:29;101995.41;;;-3.68;100.00
4836;BME280;2432;51.226;6.904;2022-12-18T09:10:56;101983.06;;;-3.61;100.00
4836;BME280;2432;51.226;6.904;2022-12-18T09:13:22;101975.56;;;-3.58;100.00
4836;BME280;2432;51.226;6.904;2022-12-18T09:15:51;101963.84;;;-3.54;100.00
4836;BME280;2432;51.226;6.904;2022-12-18T09:18:20;101958.28;;;-3.47;100.00
4836;BME280;2432;51.226;6.904;2022-12-18T09:20:46;101966.31;;;-3.41;100.00
4836;BME280;2432;51.226;6.904;2022-12-18T09:23:13;101965.00;;;-3.34;100.00
4836;BME280;2432;51.226;6.904;2022-12-18T09:25:40;101963.75;;;-3.26;100.00
4836;BME280;2432;51.226;6.904;2022-12-18T09:28:15;101965.78;;;-3.21;100.00
4836;BME280;2432;51.226;6.904;2022-12-18T09:30:44;101957.75;;;-3.12;100.00
4836;BME280;2432;51.226;6.904;2022-12-18T09:33:12;101965.75;;;-3.06;100.00
4836;BME280;2432;51.226;6.904;2022-12-18T09:35:40;101952.28;;;-3.03;100.00
4836;BME280;2432;51.226;6.904;2022-12-18T09:38:08;101962.84;;;-2.97;100.00
4836;BME280;2432;51.226;6.904;2022-12-18T09:40:41;101965.41;;;-2.97;100.00
4836;BME280;2432;51.226;6.904;2022-12-18T09:43:14;101957.72;;;-2.97;100.00
4836;BME280;2432;51.226;6.904;2022-12-18T09:45:45;101955.50;;;-2.91;100.00
4836;BME280;2432;51.226;6.904;2022-12-18T09:48:36;101952.66;;;-2.81;100.00
4836;BME280;2432;51.226;6.904;2022-12-18T09:51:15;101947.16;;;-2.72;100.00
4836;BME280;2432;51.226;6.904;2022-12-18T09:53:47;101946.63;;;-2.67;100.00
4836;BME280;2432;51.226;6.904;2022-12-18T09:56:19;101948.88;;;-2.57;100.00
4836;BME280;2432;51.226;6.904;2022-12-18T09:59:03;101943.44;;;-2.46;100.00
4836;BME280;2432;51.226;6.904;2022-12-18T10:01:31;101933.06;;;-2.33;100.00
4836;BME280;2432;51.226;6.904;2022-12-18T10:04:09;101926.66;;;-2.25;100.00
4836;BME280;2432;51.226;6.904;2022-12-18T10:06:50;101924.72;;;-2.13;100.00
4836;BME280;2432;51.226;6.904;2022-12-18T10:09:32;101917.56;;;-2.02;100.00
4836;BME280;2432;51.226;6.904;2022-12-18T10:15:18;101912.56;;;-1.83;100.00
4836;BME280;2432;51.226;6.904;2022-12-18T10:20:30;101916.31;;;-1.60;100.00
4836;BME280;2432;51.226;6.904;2022-12-18T10:23:07;101921.75;;;-1.54;100.00
4836;BME280;2432;51.226;6.904;2022-12-18T10:25:44;101911.94;;;-1.45;100.00
4836;BME280;2432;51.226;6.904;2022-12-18T10:28:15;101905.13;;;-1.44;100.00
4836;BME280;2432;51.226;6.904;2022-12-18T10:30:42;101896.09;;;-1.36;100.00
4836;BME280;2432;51.226;6.904;2022-12-18T10:33:16;101891.41;;;-1.27;100.00
4836;BME280;2432;51.226;6.904;2022-12-18T10:35:44;101885.84;;;-1.18;100.00
4836;BME280;2432;51.226;6.904;2022-12-18T10:41:03;101884.19;;;-0.98;100.00
4836;BME280;2432;51.226;6.904;2022-12-18T10:43:36;101880.75;;;-0.99;100.00
4836;BME280;2432;51.226;6.904;2022-12-18T10:48:52;101886.38;;;-0.88;100.00
4836;BME280;2432;51.226;6.904;2022-12-18T10:54:14;101875.22;;;-0.89;100.00
4836;BME280;2432;51.226;6.904;2022-12-18T10:56:38;101874.59;;;-0.84;100.00
4836;BME280;2432;51.226;6.904;2022-12-18T10:59:08;101867.22;;;-0.77;100.00
4836;BME280;2432;51.226;6.904;2022-12-18T11:01:57;101861.75;;;-0.65;100.00
4836;BME280;2432;51.226;6.904;2022-12-18T11:04:26;101850.13;;;-0.57;100.00
4836;BME280;2432;51.226;6.904;2022-12-18T11:07:05;101839.91;;;-0.55;100.00
4836;BME280;2432;51.226;6.904;2022-12-18T11:09:33;101847.84;;;-0.51;100.00
4836;BME280;2432;51.226;6.904;2022-12-18T11:12:23;101847.75;;;-0.52;100.00
4836;BME280;2432;51.226;6.904;2022-12-18T11:14:50;101846.22;;;-0.49;100.00
4836;BME280;2432;51.226;6.904;2022-12-18T11:17:20;101845.66;;;-0.42;100.00
4836;BME280;2432;51.226;6.904;2022-12-18T11:19:54;101848.31;;;-0.40;100.00
4836;BME280;2432;51.226;6.904;2022-12-18T11:22:29;101855.44;;;-0.35;100.00
4836;BME280;2432;51.226;6.904;2022-12-18T11:25:05;101849.59;;;-0.31;100.00
4836;BME280;2432;51.226;6.904;2022-12-18T11:27:55;101843.03;;;-0.24;100.00
4836;BME280;2432;51.226;6.904;2022-12-18T11:30:23;101842.22;;;-0.23;100.00
4836;BME280;2432;51.226;6.904;2022-12-18T11:33:06;101829.69;;;-0.15;100.00
4836;BME280;2432;51.226;6.904;2022-12-18T11:38:18;101817.69;;;-0.15;100.00
4836;BME280;2432;51.226;6.904;2022-12-18T11:40:55;101805.63;;;-0.16;100.00
4836;BME280;2432;51.226;6.904;2022-12-18T11:46:16;101803.31;;;-0.10;100.00
4836;BME280;2432;51.226;6.904;2022-12-18T11:51:44;101806.69;;;-0.11;100.00
4836;BME280;2432;51.226;6.904;2022-12-18T11:54:15;101810.09;;;-0.12;100.00
4836;BME280;2432;51.226;6.904;2022-12-18T12:09:05;101800.88;;;-0.07;100.00
4836;BME280;2432;51.226;6.904;2022-12-18T12:14:44;101793.28;;;-0.04;100.00
4836;BME280;2432;51.226;6.904;2022-12-18T12:22:27;101800.13;;;-0.04;100.00
4836;BME280;2432;51.226;6.904;2022-12-18T12:25:21;101789.72;;;-0.07;100.00
4836;BME280;2432;51.226;6.904;2022-12-18T12:28:07;101784.56;;;-0.07;100.00
4836;BME280;2432;51.226;6.904;2022-12-18T12:30:52;101776.78;;;-0.09;100.00
4836;BME280;2432;51.226;6.904;2022-12-18T12:33:54;101770.81;;;-0.08;100.00
4836;BME280;2432;51.226;6.904;2022-12-18T12:39:14;101774.13;;;-0.10;100.00
4836;BME280;2432;51.226;6.904;2022-12-18T12:41:44;101772.56;;;-0.07;100.00
4836;BME280;2432;51.226;6.904;2022-12-18T12:44:37;101773.31;;;-0.09;100.00
4836;BME280;2432;51.226;6.904;2022-12-18T12:47:20;101772.50;;;-0.08;100.00
4836;BME280;2432;51.226;6.904;2022-12-18T12:49:49;101762.94;;;-0.11;100.00
4836;BME280;2432;51.226;6.904;2022-12-18T12:52:29;101765.47;;;-0.12;100.00
4836;BME280;2432;51.226;6.904;2022-12-18T12:54:58;101767.09;;;-0.14;100.00
4836;BME280;2432;51.226;6.904;2022-12-18T12:57:38;101767.97;;;-0.14;100.00
4836;BME280;2432;51.226;6.904;2022-12-18T13:00:11;101772.25;;;-0.14;100.00
4836;BME280;2432;51.226;6.904;2022-12-18T13:02:48;101774.88;;;-0.13;100.00
4836;BME280;2432;51.226;6.904;2022-12-18T13:05:30;101774.63;;;-0.19;100.00
4836;BME280;2432;51.226;6.904;2022-12-18T13:08:03;101776.25;;;-0.21;100.00
4836;BME280;2432;51.226;6.904;2022-12-18T13:10:40;101769.47;;;-0.19;100.00
4836;BME280;2432;51.226;6.904;2022-12-18T13:13:09;101772.03;;;-0.19;100.00
4836;BME280;2432;51.226;6.904;2022-12-18T13:21:02;101773.31;;;-0.09;100.00
4836;BME280;2432;51.226;6.904;2022-12-18T13:23:36;101769.75;;;-0.13;100.00
4836;BME280;2432;51.226;6.904;2022-12-18T13:34:17;101748.06;;;-0.18;100.00
4836;BME280;2432;51.226;6.904;2022-12-18T13:36:54;101743.00;;;-0.16;100.00
4836;BME280;2432;51.226;6.904;2022-12-18T13:39:42;101733.59;;;-0.16;100.00
4836;BME280;2432;51.226;6.904;2022-12-18T13:42:31;101746.41;;;-0.17;100.00
4836;BME280;2432;51.226;6.904;2022-12-18T13:48:21;101722.22;;;-0.21;100.00
4836;BME280;2432;51.226;6.904;2022-12-18T13:50:53;101719.59;;;-0.22;100.00
4836;BME280;2432;51.226;6.904;2022-12-18T13:53:23;101710.13;;;-0.23;100.00
4836;BME280;2432;51.226;6.904;2022-12-18T13:55:51;101709.31;;;-0.22;100.00
4836;BME280;2432;51.226;6.904;2022-12-18T13:58:18;101708.38;;;-0.24;100.00
4836;BME280;2432;51.226;6.904;2022-12-18T14:00:45;101721.22;;;-0.24;100.00
4836;BME280;2432;51.226;6.904;2022-12-18T14:03:27;101714.25;;;-0.27;100.00
4836;BME280;2432;51.226;6.904;2022-12-18T14:05:58;101704.91;;;-0.25;100.00
4836;BME280;2432;51.226;6.904;2022-12-18T14:08:32;101704.03;;;-0.25;100.00
4836;BME280;2432;51.226;6.904;2022-12-18T14:11:00;101705.75;;;-0.26;100.00
4836;BME280;2432;51.226;6.904;2022-12-18T14:13:31;101699.69;;;-0.26;100.00
4836;BME280;2432;51.226;6.904;2022-12-18T14:16:01;101695.31;;;-0.29;100.00
4836;BME280;2432;51.226;6.904;2022-12-18T14:18:52;101690.97;;;-0.30;100.00
4836;BME280;2432;51.226;6.904;2022-12-18T14:21:27;101688.47;;;-0.29;100.00
4836;BME280;2432;51.226;6.904;2022-12-18T14:24:18;101690.91;;;-0.32;100.00
4836;BME280;2432;51.226;6.904;2022-12-18T14:26:46;101682.38;;;-0.31;100.00
4836;BME280;2432;51.226;6.904;2022-12-18T14:29:26;101676.38;;;-0.31;100.00
4836;BME280;2432;51.226;6.904;2022-12-18T14:32:06;101680.56;;;-0.33;100.00
4836;BME280;2432;51.226;6.904;2022-12-18T14:34:42;101681.41;;;-0.34;100.00
4836;BME280;2432;51.226;6.904;2022-12-18T14:37:12;101686.44;;;-0.36;100.00
4836;BME280;2432;51.226;6.904;2022-12-18T14:39:39;101672.84;;;-0.33;100.00
4836;BME280;2432;51.226;6.904;2022-12-18T14:42:10;101673.69;;;-0.34;100.00
4836;BME280;2432;51.226;6.904;2022-12-18T14:44:37;101675.22;;;-0.38;100.00